PDA005 LIEO-UKBB
Flight info
| Callsign | PDA005 |
|---|---|
| Flight time | N/A |
| Altitude | 32000 |
| Route | BATOX L5 VALMA L865 ANC/N0389F200 M986 IBENI/N0449F350 DCT NIVES DCT VEBAL DCT DODAR DCT LONLA/K0828F350 M986 IVF M991 NIROV T199 GAMLA N180 SULUM |
| Aircraft | A321/M-SDE3FGHIRWY/LB1 |
Departure
| Time | 2026-04-28 17:02 |
|---|---|
| Airport | Olbia Costa Smeralda Airport (LIEO) |
Arrival
| Time | N/A |
|---|---|
| Airport | Boryspil International Airport (UKBB) |
| Time | Latitude | Longitude | Altitude | Speed | Heading |
|---|---|---|---|---|---|
| 2026-04-28 16:29 | 40.90133 | 9.51703 | 50 ft | 0 kts | 83° |
| 2026-04-28 16:50 | 40.90133 | 9.51701 | 50 ft | 1 kts | 84° |
| 2026-04-28 16:50 | 40.90131 | 9.51681 | 50 ft | 2 kts | 85° |
| 2026-04-28 16:51 | 40.90135 | 9.51661 | 50 ft | 2 kts | 124° |
| 2026-04-28 16:51 | 40.90146 | 9.51647 | 50 ft | 2 kts | 155° |
| 2026-04-28 16:51 | 40.90161 | 9.51643 | 50 ft | 2 kts | 186° |
| 2026-04-28 16:51 | 40.90176 | 9.51650 | 50 ft | 2 kts | 217° |
| 2026-04-28 16:52 | 40.90182 | 9.51657 | 50 ft | 0 kts | 234° |
| 2026-04-28 16:52 | 40.90185 | 9.51665 | 50 ft | 0 kts | 236° |
| 2026-04-28 16:55 | 40.90180 | 9.51655 | 50 ft | 2 kts | 231° |
| 2026-04-28 16:55 | 40.90167 | 9.51636 | 50 ft | 3 kts | 229° |
| 2026-04-28 16:56 | 40.90147 | 9.51606 | 50 ft | 4 kts | 230° |
| 2026-04-28 16:56 | 40.90123 | 9.51564 | 50 ft | 6 kts | 235° |
| 2026-04-28 16:56 | 40.90096 | 9.51513 | 50 ft | 7 kts | 235° |
| 2026-04-28 16:56 | 40.90054 | 9.51489 | 50 ft | 6 kts | 162° |
| 2026-04-28 16:57 | 40.90005 | 9.51515 | 50 ft | 8 kts | 174° |
| 2026-04-28 16:57 | 40.89949 | 9.51500 | 50 ft | 8 kts | 211° |
| 2026-04-28 16:57 | 40.89905 | 9.51440 | 50 ft | 9 kts | 233° |
| 2026-04-28 16:57 | 40.89864 | 9.51366 | 50 ft | 10 kts | 234° |
| 2026-04-28 16:58 | 40.89820 | 9.51287 | 50 ft | 10 kts | 236° |
| 2026-04-28 16:58 | 40.89774 | 9.51200 | 50 ft | 11 kts | 235° |
| 2026-04-28 16:58 | 40.89728 | 9.51108 | 50 ft | 12 kts | 237° |
| 2026-04-28 16:58 | 40.89679 | 9.51013 | 50 ft | 12 kts | 236° |
| 2026-04-28 16:59 | 40.89628 | 9.50913 | 50 ft | 13 kts | 235° |
| 2026-04-28 16:59 | 40.89574 | 9.50812 | 50 ft | 13 kts | 235° |
| 2026-04-28 16:59 | 40.89520 | 9.50710 | 50 ft | 13 kts | 236° |
| 2026-04-28 16:59 | 40.89464 | 9.50601 | 50 ft | 14 kts | 236° |
| 2026-04-28 17:00 | 40.89405 | 9.50491 | 50 ft | 14 kts | 230° |
| 2026-04-28 17:00 | 40.89318 | 9.50447 | 50 ft | 14 kts | 165° |
| 2026-04-28 17:00 | 40.89272 | 9.50554 | 50 ft | 14 kts | 98° |
| 2026-04-28 17:00 | 40.89299 | 9.50676 | 50 ft | 14 kts | 56° |
| 2026-04-28 17:01 | 40.89316 | 9.50709 | 50 ft | 5 kts | 56° |
| 2026-04-28 17:01 | 40.89463 | 9.51001 | 50 ft | 73 kts | 54° |
| 2026-04-28 17:01 | 40.89883 | 9.51789 | 50 ft | 134 kts | 56° |
| 2026-04-28 17:01 | 40.90511 | 9.52975 | 155 ft | 172 kts | 57° |
| 2026-04-28 17:02 | 40.91206 | 9.54313 | 667 ft | 179 kts | 57° |
| 2026-04-28 17:02 | 40.91676 | 9.55213 | 1215 ft | 175 kts | 58° |
| 2026-04-28 17:02 | 40.92563 | 9.56883 | 2085 ft | 170 kts | 58° |
| 2026-04-28 17:02 | 40.93277 | 9.58234 | 2359 ft | 184 kts | 58° |
| 2026-04-28 17:03 | 40.94873 | 9.61251 | 2929 ft | 212 kts | 58° |
| 2026-04-28 17:03 | 40.95754 | 9.62910 | 3164 ft | 231 kts | 58° |
| 2026-04-28 17:03 | 40.96727 | 9.64739 | 3578 ft | 243 kts | 57° |
| 2026-04-28 17:04 | 40.98681 | 9.68423 | 4791 ft | 251 kts | 59° |
| 2026-04-28 17:04 | 40.99664 | 9.70444 | 5253 ft | 265 kts | 60° |
| 2026-04-28 17:05 | 41.01724 | 9.74764 | 6376 ft | 282 kts | 59° |
| 2026-04-28 17:05 | 41.02771 | 9.76951 | 7068 ft | 285 kts | 58° |
| 2026-04-28 17:05 | 41.03844 | 9.79183 | 7778 ft | 289 kts | 58° |
| 2026-04-28 17:06 | 41.06023 | 9.83718 | 9129 ft | 296 kts | 58° |
| 2026-04-28 17:06 | 41.07139 | 9.86042 | 9795 ft | 299 kts | 58° |
| 2026-04-28 17:06 | 41.09414 | 9.90787 | 10725 ft | 320 kts | 58° |
| 2026-04-28 17:07 | 41.10632 | 9.93333 | 11005 ft | 336 kts | 58° |
| 2026-04-28 17:07 | 41.11911 | 9.96010 | 11291 ft | 351 kts | 58° |
| 2026-04-28 17:07 | 41.13253 | 9.98817 | 11557 ft | 365 kts | 58° |
| 2026-04-28 17:07 | 41.14636 | 10.01712 | 11848 ft | 378 kts | 58° |
| 2026-04-28 17:08 | 41.16030 | 10.04632 | 12352 ft | 382 kts | 58° |
| 2026-04-28 17:08 | 41.17449 | 10.07609 | 12942 ft | 384 kts | 58° |
| 2026-04-28 17:08 | 41.18900 | 10.10660 | 13540 ft | 385 kts | 58° |
| 2026-04-28 17:08 | 41.20296 | 10.13695 | 14085 ft | 388 kts | 60° |
| 2026-04-28 17:09 | 41.21533 | 10.16833 | 14598 ft | 391 kts | 65° |
| 2026-04-28 17:09 | 41.22618 | 10.20142 | 15120 ft | 393 kts | 68° |
| 2026-04-28 17:09 | 41.23632 | 10.23544 | 15626 ft | 396 kts | 69° |
| 2026-04-28 17:09 | 41.24624 | 10.26930 | 16107 ft | 399 kts | 69° |
| 2026-04-28 17:10 | 41.25635 | 10.30386 | 16586 ft | 402 kts | 69° |
| 2026-04-28 17:10 | 41.26657 | 10.33874 | 17051 ft | 405 kts | 69° |
| 2026-04-28 17:10 | 41.27669 | 10.37328 | 17501 ft | 408 kts | 69° |
| 2026-04-28 17:10 | 41.28709 | 10.40877 | 17896 ft | 410 kts | 69° |
| 2026-04-28 17:11 | 41.29738 | 10.44392 | 17995 ft | 411 kts | 69° |
| 2026-04-28 17:11 | 41.30772 | 10.47925 | 18001 ft | 412 kts | 69° |
| 2026-04-28 17:11 | 41.31811 | 10.51477 | 18004 ft | 411 kts | 69° |
| 2026-04-28 17:11 | 41.32852 | 10.55041 | 18005 ft | 411 kts | 69° |
| 2026-04-28 17:12 | 41.33926 | 10.58544 | 17998 ft | 411 kts | 63° |
| 2026-04-28 17:12 | 41.35645 | 10.61573 | 17997 ft | 411 kts | 43° |
| 2026-04-28 17:12 | 41.37870 | 10.64034 | 18053 ft | 414 kts | 37° |
| 2026-04-28 17:12 | 41.40177 | 10.66382 | 18458 ft | 417 kts | 37° |
| 2026-04-28 17:13 | 41.42486 | 10.68765 | 18990 ft | 417 kts | 38° |
| 2026-04-28 17:13 | 41.44760 | 10.71174 | 19437 ft | 419 kts | 39° |
| 2026-04-28 17:13 | 41.47003 | 10.73601 | 19851 ft | 421 kts | 39° |
| 2026-04-28 17:13 | 41.49297 | 10.76118 | 20273 ft | 423 kts | 39° |
| 2026-04-28 17:14 | 41.51552 | 10.78614 | 20671 ft | 425 kts | 39° |
| 2026-04-28 17:14 | 41.53820 | 10.81138 | 21071 ft | 428 kts | 39° |
| 2026-04-28 17:14 | 41.56110 | 10.83695 | 21467 ft | 430 kts | 39° |
| 2026-04-28 17:14 | 41.58413 | 10.86273 | 21842 ft | 432 kts | 39° |
| 2026-04-28 17:15 | 41.60719 | 10.88859 | 22212 ft | 434 kts | 39° |
| 2026-04-28 17:15 | 41.63027 | 10.91450 | 22590 ft | 436 kts | 39° |
| 2026-04-28 17:15 | 41.65375 | 10.94088 | 22954 ft | 438 kts | 39° |
| 2026-04-28 17:15 | 41.67676 | 10.96678 | 23305 ft | 440 kts | 39° |
| 2026-04-28 17:16 | 41.70032 | 10.99332 | 23666 ft | 442 kts | 39° |
| 2026-04-28 17:16 | 41.72408 | 11.02011 | 24006 ft | 444 kts | 39° |
| 2026-04-28 17:16 | 41.74787 | 11.04696 | 24326 ft | 447 kts | 39° |
| 2026-04-28 17:16 | 41.77174 | 11.07393 | 24638 ft | 449 kts | 38° |
| 2026-04-28 17:17 | 41.79567 | 11.10100 | 24940 ft | 452 kts | 38° |
| 2026-04-28 17:17 | 41.81986 | 11.12839 | 25243 ft | 454 kts | 38° |
| 2026-04-28 17:17 | 41.84396 | 11.15570 | 25546 ft | 456 kts | 38° |
| 2026-04-28 17:17 | 41.86837 | 11.18338 | 25852 ft | 458 kts | 38° |
| 2026-04-28 17:18 | 41.89269 | 11.21100 | 26132 ft | 461 kts | 38° |
| 2026-04-28 17:18 | 41.91695 | 11.23859 | 26412 ft | 463 kts | 38° |
| 2026-04-28 17:18 | 41.94178 | 11.26685 | 26750 ft | 463 kts | 38° |
| 2026-04-28 17:18 | 41.96625 | 11.29475 | 27176 ft | 462 kts | 38° |
| 2026-04-28 17:19 | 41.99072 | 11.32268 | 27623 ft | 460 kts | 38° |
| 2026-04-28 17:19 | 42.01501 | 11.35043 | 28037 ft | 459 kts | 38° |
| 2026-04-28 17:19 | 42.03934 | 11.37823 | 28405 ft | 458 kts | 38° |
| 2026-04-28 17:19 | 42.06384 | 11.40626 | 28776 ft | 458 kts | 38° |
| 2026-04-28 17:20 | 42.08807 | 11.43399 | 29163 ft | 457 kts | 38° |
| 2026-04-28 17:20 | 42.10434 | 11.45266 | 29426 ft | 457 kts | 38° |
| 2026-04-28 17:20 | 42.13637 | 11.48943 | 29940 ft | 455 kts | 38° |
| 2026-04-28 17:20 | 42.16064 | 11.51732 | 30302 ft | 455 kts | 38° |
| 2026-04-28 17:21 | 42.18480 | 11.54510 | 30615 ft | 455 kts | 38° |
| 2026-04-28 17:21 | 42.20885 | 11.57279 | 30912 ft | 455 kts | 38° |
| 2026-04-28 17:21 | 42.23327 | 11.60092 | 31181 ft | 456 kts | 38° |
| 2026-04-28 17:22 | 42.28179 | 11.65692 | 31681 ft | 459 kts | 38° |
| 2026-04-28 17:22 | 42.30604 | 11.68495 | 31929 ft | 460 kts | 38° |
| 2026-04-28 17:22 | 42.33065 | 11.71344 | 32021 ft | 461 kts | 38° |
| 2026-04-28 17:23 | 42.40388 | 11.79839 | 32032 ft | 461 kts | 38° |
| 2026-04-28 17:23 | 42.45241 | 11.85486 | 32042 ft | 460 kts | 38° |
| 2026-04-28 17:24 | 42.50131 | 11.91188 | 32045 ft | 460 kts | 38° |
| 2026-04-28 17:24 | 42.55028 | 11.96913 | 32044 ft | 460 kts | 38° |
| 2026-04-28 17:25 | 42.62286 | 12.05598 | 32038 ft | 461 kts | 41° |
| 2026-04-28 17:26 | 42.66763 | 12.11869 | 32038 ft | 463 kts | 44° |
| 2026-04-28 17:26 | 42.71215 | 12.18295 | 32038 ft | 463 kts | 44° |
| 2026-04-28 17:27 | 42.75657 | 12.24723 | 32034 ft | 463 kts | 44° |
| 2026-04-28 17:27 | 42.80106 | 12.31168 | 32034 ft | 463 kts | 44° |
| 2026-04-28 17:28 | 42.84520 | 12.37571 | 32029 ft | 463 kts | 44° |
| 2026-04-28 17:28 | 42.91143 | 12.47219 | 32040 ft | 463 kts | 44° |
| 2026-04-28 17:29 | 42.95550 | 12.53661 | 32048 ft | 463 kts | 44° |
| 2026-04-28 17:30 | 43.02163 | 12.63359 | 32056 ft | 463 kts | 44° |
| 2026-04-28 17:30 | 43.08764 | 12.73043 | 32058 ft | 464 kts | 44° |
| 2026-04-28 17:31 | 43.15333 | 12.82688 | 32060 ft | 464 kts | 44° |
| 2026-04-28 17:32 | 43.21929 | 12.92418 | 32062 ft | 464 kts | 44° |
| 2026-04-28 17:32 | 43.26294 | 12.98895 | 32054 ft | 464 kts | 44° |
| 2026-04-28 17:33 | 43.30660 | 13.05379 | 32052 ft | 463 kts | 44° |
| 2026-04-28 17:33 | 43.33635 | 13.09753 | 32046 ft | 463 kts | 44° |
| 2026-04-28 17:34 | 43.39505 | 13.18402 | 32038 ft | 463 kts | 44° |
| 2026-04-28 17:34 | 43.43859 | 13.24898 | 32033 ft | 464 kts | 44° |
| 2026-04-28 17:35 | 43.48240 | 13.31466 | 32029 ft | 464 kts | 44° |
| 2026-04-28 17:35 | 43.52590 | 13.37998 | 32026 ft | 463 kts | 44° |
| 2026-04-28 17:36 | 43.56876 | 13.44336 | 32023 ft | 462 kts | 41° |
| 2026-04-28 17:36 | 43.61639 | 13.50236 | 32018 ft | 459 kts | 35° |
| 2026-04-28 17:37 | 43.66701 | 13.55581 | 32021 ft | 458 kts | 33° |
| 2026-04-28 17:37 | 43.71771 | 13.60861 | 32016 ft | 458 kts | 33° |
| 2026-04-28 17:38 | 43.76806 | 13.66136 | 32013 ft | 459 kts | 34° |
| 2026-04-28 17:38 | 43.81914 | 13.71512 | 32009 ft | 460 kts | 34° |
| 2026-04-28 17:39 | 43.86980 | 13.76859 | 32013 ft | 460 kts | 34° |
| 2026-04-28 17:40 | 43.94597 | 13.84924 | 32014 ft | 459 kts | 34° |
| 2026-04-28 17:40 | 43.99606 | 13.90409 | 32015 ft | 461 kts | 37° |
| 2026-04-28 17:41 | 44.04216 | 13.96585 | 32014 ft | 464 kts | 44° |
| 2026-04-28 17:41 | 44.08470 | 14.03286 | 32016 ft | 465 kts | 45° |
| 2026-04-28 17:42 | 44.12580 | 14.09875 | 32016 ft | 465 kts | 45° |
| 2026-04-28 17:42 | 44.16816 | 14.16662 | 32020 ft | 466 kts | 45° |
| 2026-04-28 17:43 | 44.21038 | 14.23433 | 32020 ft | 467 kts | 45° |
| 2026-04-28 17:43 | 44.25309 | 14.30286 | 32023 ft | 467 kts | 45° |
| 2026-04-28 17:44 | 44.29544 | 14.37100 | 32024 ft | 467 kts | 45° |
| 2026-04-28 17:44 | 44.33768 | 14.43908 | 32029 ft | 467 kts | 45° |
| 2026-04-28 17:45 | 44.38023 | 14.50785 | 32031 ft | 468 kts | 45° |
| 2026-04-28 17:45 | 44.42236 | 14.57612 | 32032 ft | 468 kts | 45° |
| 2026-04-28 17:46 | 44.46368 | 14.64326 | 32035 ft | 468 kts | 45° |
| 2026-04-28 17:46 | 44.50380 | 14.70857 | 32035 ft | 468 kts | 45° |
| 2026-04-28 17:47 | 44.54615 | 14.77769 | 32041 ft | 468 kts | 45° |
| 2026-04-28 17:47 | 44.58847 | 14.84691 | 32044 ft | 469 kts | 45° |
| 2026-04-28 17:48 | 44.63092 | 14.91648 | 32056 ft | 470 kts | 45° |
| 2026-04-28 17:48 | 44.67316 | 14.98596 | 32076 ft | 471 kts | 45° |
| 2026-04-28 17:49 | 44.71549 | 15.05560 | 32092 ft | 470 kts | 45° |
| 2026-04-28 17:49 | 44.75782 | 15.12550 | 32098 ft | 470 kts | 45° |
| 2026-04-28 17:50 | 44.80009 | 15.19549 | 32087 ft | 470 kts | 45° |
| 2026-04-28 17:50 | 44.84222 | 15.26545 | 32079 ft | 470 kts | 44° |
| 2026-04-28 17:51 | 44.88460 | 15.33603 | 32075 ft | 470 kts | 44° |
| 2026-04-28 17:51 | 44.92665 | 15.40622 | 32078 ft | 470 kts | 44° |
| 2026-04-28 17:52 | 44.96857 | 15.47636 | 32080 ft | 471 kts | 44° |
| 2026-04-28 17:52 | 45.03072 | 15.58068 | 32078 ft | 471 kts | 44° |
| 2026-04-28 17:53 | 45.07256 | 15.65111 | 32073 ft | 471 kts | 45° |
| 2026-04-28 17:53 | 45.11442 | 15.72177 | 32073 ft | 470 kts | 45° |
| 2026-04-28 17:54 | 45.15642 | 15.79288 | 32073 ft | 470 kts | 45° |
| 2026-04-28 17:54 | 45.19853 | 15.86438 | 32072 ft | 470 kts | 44° |
| 2026-04-28 17:55 | 45.24021 | 15.93575 | 32073 ft | 471 kts | 45° |
| 2026-04-28 17:55 | 45.28093 | 16.00783 | 32072 ft | 471 kts | 45° |
| 2026-04-28 17:56 | 45.32158 | 16.08020 | 32073 ft | 471 kts | 45° |
| 2026-04-28 17:56 | 45.36248 | 16.15312 | 32072 ft | 470 kts | 45° |
| 2026-04-28 17:57 | 45.40317 | 16.22575 | 32075 ft | 469 kts | 45° |
| 2026-04-28 17:57 | 45.44358 | 16.29802 | 32074 ft | 470 kts | 45° |
| 2026-04-28 17:58 | 45.48443 | 16.37123 | 32075 ft | 471 kts | 45° |
| 2026-04-28 17:58 | 45.52519 | 16.44455 | 32078 ft | 471 kts | 45° |
| 2026-04-28 17:59 | 45.56575 | 16.51767 | 32080 ft | 472 kts | 45° |
| 2026-04-28 17:59 | 45.60632 | 16.59102 | 32083 ft | 471 kts | 45° |
| 2026-04-28 18:00 | 45.64690 | 16.66454 | 32081 ft | 471 kts | 46° |
| 2026-04-28 18:00 | 45.68764 | 16.73851 | 32086 ft | 471 kts | 46° |
| 2026-04-28 18:01 | 45.72816 | 16.81234 | 32088 ft | 471 kts | 45° |
| 2026-04-28 18:01 | 45.76888 | 16.88670 | 32090 ft | 471 kts | 45° |
| 2026-04-28 18:02 | 45.80904 | 16.96028 | 32096 ft | 472 kts | 45° |
| 2026-04-28 18:02 | 45.84906 | 17.03373 | 32100 ft | 472 kts | 45° |
| 2026-04-28 18:03 | 45.88947 | 17.10816 | 32114 ft | 473 kts | 45° |
| 2026-04-28 18:03 | 45.92976 | 17.18261 | 32118 ft | 472 kts | 45° |
| 2026-04-28 18:04 | 45.96984 | 17.25684 | 32121 ft | 473 kts | 45° |
| 2026-04-28 18:04 | 46.01030 | 17.33081 | 32117 ft | 472 kts | 44° |
| 2026-04-28 18:05 | 46.04506 | 17.39154 | 32120 ft | 472 kts | 43° |
| 2026-04-28 18:05 | 46.09363 | 17.47642 | 32122 ft | 472 kts | 43° |
| 2026-04-28 18:06 | 46.13503 | 17.54931 | 32120 ft | 472 kts | 43° |
| 2026-04-28 18:06 | 46.17662 | 17.62286 | 32445 ft | 477 kts | 43° |
| 2026-04-28 18:07 | 46.19763 | 17.66016 | 32843 ft | 474 kts | 44° |
| 2026-04-28 18:07 | 46.21825 | 17.69686 | 33173 ft | 473 kts | 44° |
| 2026-04-28 18:07 | 46.23912 | 17.73399 | 33470 ft | 473 kts | 44° |
| 2026-04-28 18:07 | 46.25985 | 17.77090 | 33732 ft | 473 kts | 43° |
| 2026-04-28 18:08 | 46.28063 | 17.80798 | 33983 ft | 473 kts | 43° |
| 2026-04-28 18:08 | 46.30131 | 17.84491 | 34232 ft | 474 kts | 43° |
| 2026-04-28 18:08 | 46.32184 | 17.88163 | 34458 ft | 474 kts | 43° |
| 2026-04-28 18:08 | 46.34277 | 17.91911 | 34686 ft | 475 kts | 43° |
| 2026-04-28 18:09 | 46.36342 | 17.95615 | 34935 ft | 474 kts | 43° |
| 2026-04-28 18:09 | 46.38398 | 17.99306 | 35163 ft | 473 kts | 43° |
| 2026-04-28 18:09 | 46.40461 | 18.03013 | 35356 ft | 473 kts | 43° |
| 2026-04-28 18:09 | 46.42516 | 18.06715 | 35546 ft | 472 kts | 43° |
| 2026-04-28 18:10 | 46.44597 | 18.10464 | 35758 ft | 471 kts | 43° |
| 2026-04-28 18:10 | 46.46627 | 18.14127 | 35939 ft | 471 kts | 43° |
| 2026-04-28 18:10 | 46.48679 | 18.17834 | 36093 ft | 471 kts | 43° |
| 2026-04-28 18:10 | 46.50729 | 18.21538 | 36102 ft | 475 kts | 44° |
| 2026-04-28 18:11 | 46.54844 | 18.29000 | 36112 ft | 477 kts | 43° |
| 2026-04-28 18:11 | 46.58954 | 18.36476 | 36109 ft | 477 kts | 43° |
| 2026-04-28 18:12 | 46.63091 | 18.44026 | 36095 ft | 477 kts | 43° |
| 2026-04-28 18:12 | 46.67103 | 18.51361 | 36103 ft | 478 kts | 43° |
| 2026-04-28 18:13 | 46.71170 | 18.58819 | 36101 ft | 477 kts | 43° |
| 2026-04-28 18:13 | 46.75235 | 18.66293 | 36099 ft | 477 kts | 44° |
| 2026-04-28 18:14 | 46.79407 | 18.73978 | 36096 ft | 482 kts | 44° |
| 2026-04-28 18:14 | 46.83589 | 18.81709 | 36095 ft | 485 kts | 44° |
| 2026-04-28 18:15 | 46.87734 | 18.89400 | 36105 ft | 484 kts | 44° |
| 2026-04-28 18:15 | 46.91901 | 18.97151 | 36094 ft | 482 kts | 44° |
| 2026-04-28 18:16 | 46.96032 | 19.04853 | 36103 ft | 483 kts | 44° |
| 2026-04-28 18:16 | 46.99762 | 19.11823 | 36121 ft | 482 kts | 44° |
| 2026-04-28 18:17 | 47.03918 | 19.19617 | 36112 ft | 483 kts | 44° |
| 2026-04-28 18:17 | 47.08017 | 19.27326 | 36126 ft | 482 kts | 44° |
| 2026-04-28 18:18 | 47.12145 | 19.35119 | 36128 ft | 482 kts | 44° |
| 2026-04-28 18:18 | 47.15549 | 19.41552 | 36133 ft | 482 kts | 44° |
| 2026-04-28 18:19 | 47.20347 | 19.50678 | 36135 ft | 485 kts | 45° |
| 2026-04-28 18:19 | 47.24118 | 19.58927 | 36137 ft | 489 kts | 50° |
| 2026-04-28 18:20 | 47.27699 | 19.67413 | 36139 ft | 492 kts | 51° |
| 2026-04-28 18:20 | 47.31271 | 19.75934 | 36138 ft | 491 kts | 51° |
| 2026-04-28 18:21 | 47.34838 | 19.84446 | 36142 ft | 489 kts | 51° |
| 2026-04-28 18:21 | 47.38414 | 19.92995 | 36148 ft | 490 kts | 51° |
| 2026-04-28 18:22 | 47.41996 | 20.01572 | 36144 ft | 490 kts | 51° |
| 2026-04-28 18:22 | 47.45552 | 20.10128 | 36142 ft | 489 kts | 51° |
| 2026-04-28 18:23 | 47.49110 | 20.18704 | 36139 ft | 490 kts | 51° |
| 2026-04-28 18:23 | 47.52641 | 20.27247 | 36142 ft | 490 kts | 51° |
| 2026-04-28 18:24 | 47.55617 | 20.34464 | 36138 ft | 491 kts | 51° |
| 2026-04-28 18:24 | 47.59765 | 20.44554 | 36139 ft | 491 kts | 51° |
| 2026-04-28 18:25 | 47.63302 | 20.53193 | 36143 ft | 492 kts | 51° |
| 2026-04-28 18:26 | 47.68621 | 20.66237 | 36144 ft | 492 kts | 52° |
| 2026-04-28 18:26 | 47.72147 | 20.74916 | 36142 ft | 493 kts | 52° |
| 2026-04-28 18:27 | 47.75687 | 20.83662 | 36149 ft | 493 kts | 52° |
| 2026-04-28 18:27 | 47.79220 | 20.92413 | 36150 ft | 492 kts | 52° |
| 2026-04-28 18:28 | 47.82746 | 21.01173 | 36143 ft | 494 kts | 52° |
| 2026-04-28 18:28 | 47.86263 | 21.09947 | 36144 ft | 492 kts | 52° |
| 2026-04-28 18:29 | 47.89777 | 21.18739 | 36134 ft | 492 kts | 52° |
| 2026-04-28 18:29 | 47.93270 | 21.27513 | 36140 ft | 491 kts | 52° |
| 2026-04-28 18:30 | 47.96776 | 21.36337 | 36141 ft | 492 kts | 52° |
| 2026-04-28 18:30 | 48.00263 | 21.45148 | 36143 ft | 492 kts | 52° |
| 2026-04-28 18:31 | 48.02572 | 21.51000 | 36509 ft | 492 kts | 52° |